createdAt,value
2022-08-20T00:00:01.612Z,96.83
2022-08-20T00:01:02.274Z,97.13
2022-08-20T00:02:01.645Z,97.23
2022-08-20T00:03:01.560Z,97.43
2022-08-20T00:04:01.765Z,97.43
2022-08-20T00:05:01.551Z,97.33
2022-08-20T00:06:01.577Z,97.43
2022-08-20T00:07:01.591Z,97.53
2022-08-20T00:08:02.303Z,97.53
2022-08-20T00:09:01.541Z,97.63
2022-08-20T00:10:01.646Z,97.93
2022-08-20T00:11:01.534Z,98.38
2022-08-20T00:12:01.514Z,98.48
2022-08-20T00:13:01.884Z,98.68
2022-08-20T00:14:01.445Z,98.73
2022-08-20T00:15:01.476Z,98.38
2022-08-20T00:16:01.424Z,98.48
2022-08-20T00:17:01.440Z,98.58
2022-08-20T00:18:01.410Z,98.68
2022-08-20T00:19:01.385Z,98.68
2022-08-20T00:20:01.363Z,98.58
2022-08-20T00:21:01.716Z,98.48
2022-08-20T00:22:01.360Z,98.58
2022-08-20T00:23:01.348Z,98.58
2022-08-20T00:24:01.379Z,98.58
2022-08-20T00:25:01.324Z,98.48
2022-08-20T00:26:01.323Z,98.38
2022-08-20T00:27:01.329Z,98.28
2022-08-20T00:28:01.297Z,98.28
2022-08-20T00:29:01.346Z,98.18
2022-08-20T00:30:01.675Z,98.03
2022-08-20T00:31:01.313Z,98.03
2022-08-20T00:32:01.277Z,98.03
2022-08-20T00:33:01.277Z,98.13
2022-08-20T00:34:01.251Z,97.93
2022-08-20T00:35:01.239Z,97.93
2022-08-20T00:36:01.210Z,98.08
2022-08-20T00:37:01.248Z,98.08
2022-08-20T00:38:01.190Z,98.03
2022-08-20T00:39:01.242Z,97.97
2022-08-20T00:40:01.213Z,98.03
2022-08-20T00:41:01.180Z,98.28
2022-08-20T00:42:01.206Z,98.48
2022-08-20T00:43:01.156Z,98.78
2022-08-20T00:44:01.616Z,99.08
2022-08-20T00:45:01.161Z,99.58
2022-08-20T00:46:01.115Z,99.98
2022-08-20T00:47:01.123Z,99.99
2022-08-20T00:48:01.132Z,99.99
2022-08-20T00:49:01.727Z,99.99
2022-08-20T00:50:01.061Z,99.99
2022-08-20T00:51:01.061Z,99.99
2022-08-20T00:52:01.060Z,99.99
2022-08-20T00:53:01.033Z,99.99
2022-08-20T00:54:01.034Z,99.99
2022-08-20T00:55:01.024Z,99.99
2022-08-20T00:56:01.014Z,99.99
2022-08-20T00:57:01.005Z,99.99
2022-08-20T00:58:02.086Z,99.99
2022-08-20T00:59:00.985Z,99.99
2022-08-20T01:00:00.961Z,99.99
2022-08-20T01:01:00.945Z,99.99
2022-08-20T01:02:01.009Z,99.99
2022-08-20T01:03:00.976Z,99.99
2022-08-20T01:04:00.927Z,99.99
2022-08-20T01:05:00.919Z,99.99
2022-08-20T01:06:00.898Z,99.99
2022-08-20T01:07:00.898Z,99.99
2022-08-20T01:08:00.895Z,99.99
2022-08-20T01:09:00.879Z,99.99
2022-08-20T01:10:00.856Z,99.99
2022-08-20T01:11:00.853Z,99.99
2022-08-20T01:12:00.842Z,99.99
2022-08-20T01:13:00.869Z,99.99
2022-08-20T01:14:00.875Z,99.99
2022-08-20T01:15:00.810Z,99.99
2022-08-20T01:16:00.830Z,99.99
2022-08-20T01:17:00.780Z,99.99
2022-08-20T01:18:00.781Z,99.99
2022-08-20T01:19:00.762Z,99.99
2022-08-20T01:20:00.766Z,99.99
2022-08-20T01:21:00.740Z,99.99
2022-08-20T01:22:00.763Z,99.99
2022-08-20T01:23:00.740Z,99.99
2022-08-20T01:24:00.763Z,99.99
2022-08-20T01:25:00.711Z,99.99
2022-08-20T01:26:00.699Z,99.88
2022-08-20T01:27:00.680Z,99.99
2022-08-20T01:28:01.081Z,99.88
2022-08-20T01:29:00.662Z,99.48
2022-08-20T01:30:00.656Z,99.68
2022-08-20T01:31:01.716Z,99.98
2022-08-20T01:32:00.650Z,99.99
2022-08-20T01:33:00.634Z,99.88
2022-08-20T01:34:00.607Z,99.78
2022-08-20T01:35:00.595Z,99.58
2022-08-20T01:36:00.611Z,99.78
2022-08-20T01:37:00.600Z,99.48
2022-08-20T01:38:00.577Z,99.58
2022-08-20T01:39:00.559Z,99.78
2022-08-20T01:40:00.628Z,99.58
2022-08-20T01:41:00.528Z,99.48
2022-08-20T01:42:00.545Z,99.58
2022-08-20T01:43:00.529Z,99.58
2022-08-20T01:44:00.498Z,99.38
2022-08-20T01:45:01.698Z,99.18
2022-08-20T01:46:00.499Z,99.18
2022-08-20T01:47:00.504Z,98.98
2022-08-20T01:48:00.464Z,98.78
2022-08-20T01:49:00.449Z,98.78
2022-08-20T01:50:00.440Z,98.58
2022-08-20T01:51:00.449Z,98.48
2022-08-20T01:52:00.448Z,98.88
2022-08-20T01:53:00.430Z,98.32
2022-08-20T01:54:00.400Z,98.72
2022-08-20T01:55:00.409Z,98.93
2022-08-20T01:56:00.583Z,99.02
2022-08-20T01:57:00.408Z,98.93
2022-08-20T01:58:00.369Z,98.52
2022-08-20T01:59:00.349Z,98.22
2022-08-20T02:00:00.367Z,98.38
2022-08-20T02:01:00.345Z,97.92
2022-08-20T02:02:00.394Z,97.67
2022-08-20T02:03:00.311Z,97.67
2022-08-20T02:04:00.316Z,97.88
2022-08-20T02:05:00.288Z,97.62
2022-08-20T02:06:00.291Z,97.72
2022-08-20T02:07:00.287Z,97.92
2022-08-20T02:08:00.340Z,97.82
2022-08-20T02:09:00.263Z,97.82
2022-08-20T02:10:00.235Z,97.67
2022-08-20T02:11:00.241Z,97.32
2022-08-20T02:12:00.201Z,97.22
2022-08-20T02:13:00.231Z,97.62
2022-08-20T02:14:00.222Z,97.62
2022-08-20T02:15:00.175Z,97.42
2022-08-20T02:16:00.162Z,97.22
2022-08-20T02:17:00.165Z,97.32
2022-08-20T02:18:00.206Z,97.62
2022-08-20T02:19:00.162Z,97.92
2022-08-20T02:20:00.158Z,97.92
2022-08-20T02:21:00.147Z,97.72
2022-08-20T02:22:00.113Z,97.72
2022-08-20T02:23:00.163Z,97.82
2022-08-20T02:24:00.108Z,97.92
2022-08-20T02:25:00.100Z,97.92
2022-08-20T02:26:00.076Z,98.17
2022-08-20T02:27:00.051Z,98.57
2022-08-20T02:28:00.086Z,98.67
2022-08-20T02:29:01.069Z,98.57
2022-08-20T02:30:00.036Z,98.97
2022-08-20T02:31:00.025Z,99.37
2022-08-20T02:32:24.797Z,99.27
2022-08-20T02:33:01.037Z,99.87
2022-08-20T02:34:18.084Z,99.99
2022-08-20T02:35:00.999Z,99.99
2022-08-20T02:35:59.966Z,99.99
2022-08-20T02:36:59.969Z,99.99
2022-08-20T02:37:59.959Z,99.99
2022-08-20T02:38:59.953Z,99.99
2022-08-20T02:39:59.948Z,99.99
2022-08-20T02:40:59.927Z,99.99
2022-08-20T02:41:59.940Z,99.99
2022-08-20T02:42:59.942Z,99.99
2022-08-20T02:43:59.903Z,99.99
2022-08-20T02:44:59.884Z,99.99
2022-08-20T02:45:59.856Z,99.99
2022-08-20T02:46:59.864Z,99.99
2022-08-20T02:47:59.849Z,99.99
2022-08-20T02:48:59.859Z,99.99
2022-08-20T02:49:59.833Z,99.99
2022-08-20T02:50:59.809Z,99.99
2022-08-20T02:51:59.799Z,99.99
2022-08-20T02:52:59.811Z,99.99
2022-08-20T02:53:59.819Z,99.99
2022-08-20T02:54:59.779Z,99.99
2022-08-20T02:55:59.757Z,99.99
2022-08-20T02:56:59.746Z,99.99
2022-08-20T02:57:59.940Z,99.99
2022-08-20T02:58:59.734Z,99.99
2022-08-20T02:59:59.737Z,99.99
2022-08-20T03:00:59.762Z,99.99
2022-08-20T03:02:00.707Z,99.99
2022-08-20T03:02:59.687Z,99.99
2022-08-20T03:03:59.698Z,99.99
2022-08-20T03:04:59.677Z,99.99
2022-08-20T03:05:59.673Z,99.99
2022-08-20T03:06:59.651Z,99.99
2022-08-20T03:07:59.648Z,99.99
2022-08-20T03:08:59.639Z,99.99
2022-08-20T03:09:59.619Z,99.99
2022-08-20T03:10:59.608Z,99.99
2022-08-20T03:11:59.622Z,99.99
2022-08-20T03:12:59.590Z,99.99
2022-08-20T03:13:59.593Z,99.99
2022-08-20T03:14:59.561Z,99.99
2022-08-20T03:15:59.904Z,99.99
2022-08-20T03:16:59.557Z,99.99
2022-08-20T03:17:59.576Z,99.99
2022-08-20T03:18:59.544Z,99.99
2022-08-20T03:19:59.507Z,99.99
2022-08-20T03:20:59.519Z,99.99
2022-08-20T03:21:59.486Z,99.99
2022-08-20T03:22:59.493Z,99.99
2022-08-20T03:23:59.512Z,99.99
2022-08-20T03:24:59.410Z,99.99
2022-08-20T03:25:59.442Z,99.99
2022-08-20T03:26:59.426Z,99.99
2022-08-20T03:27:59.581Z,99.99
2022-08-20T03:28:59.406Z,99.99
2022-08-20T03:29:59.349Z,99.99
2022-08-20T03:30:59.362Z,99.99
2022-08-20T03:31:59.364Z,99.99
2022-08-20T03:32:59.352Z,99.99
2022-08-20T03:33:59.322Z,99.99
2022-08-20T03:34:59.335Z,99.99
2022-08-20T03:35:59.297Z,99.99
2022-08-20T03:36:59.289Z,99.99
2022-08-20T03:37:59.342Z,99.99
2022-08-20T03:38:59.310Z,99.99
2022-08-20T03:39:59.335Z,99.99
2022-08-20T03:40:59.242Z,99.99
2022-08-20T03:41:59.245Z,99.99
2022-08-20T03:42:59.217Z,99.99
2022-08-20T03:43:59.237Z,99.99
2022-08-20T03:44:59.480Z,99.99
2022-08-20T03:45:59.208Z,99.99
2022-08-20T03:46:59.182Z,99.99
2022-08-20T03:47:59.159Z,99.99
2022-08-20T03:49:00.103Z,99.99
2022-08-20T03:49:59.193Z,99.99
2022-08-20T03:50:59.143Z,99.99
2022-08-20T03:51:59.133Z,99.99
2022-08-20T03:52:59.123Z,99.99
2022-08-20T03:53:59.101Z,99.99
2022-08-20T03:54:59.105Z,99.99
2022-08-20T03:56:02.205Z,99.99
2022-08-20T03:56:59.085Z,99.99
2022-08-20T03:57:59.126Z,99.99
2022-08-20T03:58:59.063Z,99.99
2022-08-20T03:59:59.073Z,99.99
2022-08-20T04:00:59.084Z,99.99
2022-08-20T04:01:59.050Z,99.99
2022-08-20T04:02:59.030Z,99.99
2022-08-20T04:03:58.997Z,99.99
2022-08-20T04:04:59.026Z,99.99
2022-08-20T04:05:59.038Z,99.99
2022-08-20T04:06:58.976Z,99.99
2022-08-20T04:08:00.152Z,99.99
2022-08-20T04:08:58.957Z,99.99
2022-08-20T04:09:58.944Z,99.99
2022-08-20T04:10:58.956Z,99.99
2022-08-20T04:11:58.937Z,99.99
2022-08-20T04:12:58.938Z,99.99
2022-08-20T04:13:58.900Z,99.99
2022-08-20T04:14:58.903Z,99.99
2022-08-20T04:15:58.895Z,99.92
2022-08-20T04:16:58.868Z,99.99
2022-08-20T04:17:58.916Z,99.99
2022-08-20T04:19:02.242Z,99.92
2022-08-20T04:19:58.890Z,99.99
2022-08-20T04:20:58.860Z,99.99
2022-08-20T04:21:58.833Z,99.98
2022-08-20T04:22:59.722Z,99.57
2022-08-20T04:23:58.804Z,99.48
2022-08-20T04:24:58.790Z,99.68
2022-08-20T04:25:58.790Z,99.32
2022-08-20T04:26:58.773Z,99.62
2022-08-20T04:27:58.931Z,99.57
2022-08-20T04:28:58.753Z,99.77
2022-08-20T04:29:58.742Z,99.48
2022-08-20T04:30:58.747Z,99.48
2022-08-20T04:31:58.714Z,99.48
2022-08-20T04:32:58.723Z,99.48
2022-08-20T04:33:58.703Z,99.42
2022-08-20T04:34:58.749Z,99.62
2022-08-20T04:35:58.694Z,99.48
2022-08-20T04:36:58.665Z,99.27
2022-08-20T04:37:58.667Z,99.42
2022-08-20T04:38:58.648Z,99.48
2022-08-20T04:39:58.668Z,99.48
2022-08-20T04:40:58.663Z,99.27
2022-08-20T04:41:58.626Z,99.48
2022-08-20T04:42:58.611Z,99.68
2022-08-20T04:43:58.608Z,99.57
2022-08-20T04:44:58.581Z,99.37
2022-08-20T04:45:58.585Z,98.87
2022-08-20T04:46:58.651Z,99.17
2022-08-20T04:47:58.639Z,99.27
2022-08-20T04:48:58.549Z,99.32
2022-08-20T04:49:58.553Z,99.27
2022-08-20T04:50:58.559Z,99.27
2022-08-20T04:51:58.516Z,99.17
2022-08-20T04:52:58.541Z,98.97
2022-08-20T04:53:58.481Z,98.97
2022-08-20T04:54:58.495Z,99.07
2022-08-20T04:55:58.501Z,99.17
2022-08-20T04:56:58.452Z,99.37
2022-08-20T04:57:58.457Z,99.48
2022-08-20T04:58:58.469Z,99.48
2022-08-20T04:59:59.593Z,99.27
2022-08-20T05:01:01.099Z,99.07
2022-08-20T05:01:58.432Z,98.97
2022-08-20T05:02:58.383Z,98.97
2022-08-20T05:03:58.385Z,99.27
2022-08-20T05:04:58.385Z,99.07
2022-08-20T05:05:58.386Z,99.07
2022-08-20T05:06:58.365Z,99.07
2022-08-20T05:07:58.434Z,98.87
2022-08-20T05:08:58.345Z,98.67
2022-08-20T05:09:58.337Z,98.87
2022-08-20T05:11:07.190Z,98.77
2022-08-20T05:11:59.311Z,98.67
2022-08-20T05:12:58.303Z,98.67
2022-08-20T05:13:58.285Z,98.77
2022-08-20T05:14:58.318Z,98.63
2022-08-20T05:15:58.257Z,98.57
2022-08-20T05:16:58.276Z,98.67
2022-08-20T05:17:58.303Z,98.77
2022-08-20T05:18:58.241Z,98.77
2022-08-20T05:19:58.220Z,98.97
2022-08-20T05:20:58.234Z,98.72
2022-08-20T05:21:58.199Z,98.63
2022-08-20T05:22:58.285Z,98.27
2022-08-20T05:23:58.183Z,98.17
2022-08-20T05:24:58.181Z,98.27
2022-08-20T05:25:58.185Z,97.97
2022-08-20T05:26:58.163Z,98.32
2022-08-20T05:27:58.205Z,97.82
2022-08-20T05:28:59.437Z,97.42
2022-08-20T05:29:58.124Z,97.32
2022-08-20T05:30:58.118Z,97.42
2022-08-20T05:31:58.118Z,97.22
2022-08-20T05:32:58.080Z,97.32
2022-08-20T05:33:58.091Z,97.32
2022-08-20T05:34:58.091Z,97.32
2022-08-20T05:35:58.080Z,97.22
2022-08-20T05:36:58.076Z,97.52
2022-08-20T05:37:58.147Z,97.57
2022-08-20T05:38:58.026Z,97.42
2022-08-20T05:39:58.108Z,97.37
2022-08-20T05:40:57.994Z,97.47
2022-08-20T05:41:58.042Z,96.92
2022-08-20T05:42:58.000Z,97.12
2022-08-20T05:43:57.980Z,96.56
2022-08-20T05:44:58.000Z,96.87
2022-08-20T05:45:57.965Z,96.77
2022-08-20T05:46:57.958Z,96.82
2022-08-20T05:47:58.004Z,96.62
2022-08-20T05:48:59.376Z,96.52
2022-08-20T05:49:57.916Z,96.22
2022-08-20T05:50:57.897Z,96.42
2022-08-20T05:51:57.929Z,96.12
2022-08-20T05:52:57.882Z,96.22
2022-08-20T05:53:59.765Z,96.22
2022-08-20T05:54:57.880Z,96.37
2022-08-20T05:55:57.871Z,95.47
2022-08-20T05:56:57.850Z,95.07
2022-08-20T05:57:57.913Z,95.32
2022-08-20T05:58:57.824Z,95.57
2022-08-20T05:59:57.816Z,95.52
2022-08-20T06:00:57.836Z,96.08
2022-08-20T06:01:57.799Z,95.72
2022-08-20T06:02:57.771Z,95.92
2022-08-20T06:03:57.784Z,95.72
2022-08-20T06:04:57.761Z,95.82
2022-08-20T06:05:57.756Z,95.42
2022-08-20T06:06:57.759Z,96.02
2022-08-20T06:08:07.086Z,96.12
2022-08-20T06:08:58.707Z,96.32
2022-08-20T06:09:58.383Z,96.42
2022-08-20T06:10:57.699Z,96.42
2022-08-20T06:11:59.199Z,96.17
2022-08-20T06:12:57.700Z,95.37
2022-08-20T06:13:57.668Z,95.01
2022-08-20T06:14:57.660Z,95.32
2022-08-20T06:15:57.639Z,96.22
2022-08-20T06:16:59.027Z,95.42
2022-08-20T06:17:58.382Z,95.36
2022-08-20T06:18:58.094Z,95.86
2022-08-20T06:19:57.604Z,96.47
2022-08-20T06:20:57.588Z,96.02
2022-08-20T06:21:57.600Z,96.02
2022-08-20T06:22:57.569Z,96.02
2022-08-20T06:23:59.661Z,96.02
2022-08-20T06:24:57.550Z,95.01
2022-08-20T06:25:57.534Z,95.42
2022-08-20T06:26:57.579Z,95.32
2022-08-20T06:27:57.668Z,95.01
2022-08-20T06:28:57.524Z,95.42
2022-08-20T06:29:57.492Z,94.92
2022-08-20T06:30:57.487Z,94.82
2022-08-20T06:31:57.477Z,95.12
2022-08-20T06:32:57.501Z,95.32
2022-08-20T06:33:57.447Z,94.21
2022-08-20T06:34:57.449Z,94.62
2022-08-20T06:35:57.448Z,95.12
2022-08-20T06:36:57.487Z,95.12
2022-08-20T06:37:57.641Z,94.71
2022-08-20T06:38:57.393Z,95.06
2022-08-20T06:39:57.448Z,95.76
2022-08-20T06:40:57.438Z,95.82
2022-08-20T06:41:57.381Z,95.42
2022-08-20T06:42:57.405Z,94.31
2022-08-20T06:43:57.344Z,95.21
2022-08-20T06:44:57.336Z,95.21
2022-08-20T06:45:57.338Z,95.21
2022-08-20T06:46:57.342Z,95.12
2022-08-20T06:47:57.484Z,95.21
2022-08-20T06:48:57.391Z,95.52
2022-08-20T06:49:57.284Z,95.52
2022-08-20T06:50:57.296Z,95.52
2022-08-20T06:51:57.256Z,95.72
2022-08-20T06:52:57.270Z,95.52
2022-08-20T06:53:57.240Z,95.82
2022-08-20T06:54:57.237Z,95.82
2022-08-20T06:55:57.220Z,95.72
2022-08-20T06:56:57.223Z,95.52
2022-08-20T06:57:57.198Z,95.72
2022-08-20T06:58:57.206Z,95.82
2022-08-20T06:59:57.181Z,95.92
2022-08-20T07:00:57.230Z,95.62
2022-08-20T07:01:57.166Z,95.52
2022-08-20T07:02:57.271Z,96.22
2022-08-20T07:03:57.162Z,95.72
2022-08-20T07:04:57.146Z,95.62
2022-08-20T07:05:57.131Z,95.72
2022-08-20T07:06:57.125Z,96.02
2022-08-20T07:07:57.106Z,95.32
2022-08-20T07:08:57.101Z,95.32
2022-08-20T07:09:57.099Z,95.62
2022-08-20T07:10:57.067Z,95.62
2022-08-20T07:11:57.057Z,95.62
2022-08-20T07:12:57.215Z,95.01
2022-08-20T07:13:57.113Z,95.42
2022-08-20T07:14:57.048Z,95.62
2022-08-20T07:15:57.025Z,95.62
2022-08-20T07:16:57.019Z,95.62
2022-08-20T07:18:00.961Z,95.47
2022-08-20T07:18:57.007Z,95.57
2022-08-20T07:19:56.982Z,95.87
2022-08-20T07:20:57.027Z,95.47
2022-08-20T07:21:56.957Z,95.17
2022-08-20T07:22:57.100Z,95.53
2022-08-20T07:23:57.170Z,94.47
2022-08-20T07:24:56.919Z,94.77
2022-08-20T07:25:56.917Z,95.07
2022-08-20T07:26:57.032Z,95.42
2022-08-20T07:27:56.907Z,95.72
2022-08-20T07:28:56.927Z,95.52
2022-08-20T07:29:56.879Z,95.32
2022-08-20T07:30:57.688Z,95.52
2022-08-20T07:31:56.857Z,95.21
2022-08-20T07:32:56.946Z,95.42
2022-08-20T07:33:56.869Z,95.21
2022-08-20T07:34:56.813Z,95.32
2022-08-20T07:35:56.824Z,95.62
2022-08-20T07:36:56.804Z,95.42
2022-08-20T07:37:56.773Z,95.52
2022-08-20T07:38:56.981Z,95.72
2022-08-20T07:39:56.834Z,95.72
2022-08-20T07:40:56.793Z,96.12
2022-08-20T07:41:56.853Z,95.92
2022-08-20T07:42:56.912Z,96.22
2022-08-20T07:43:56.812Z,95.92
2022-08-20T07:44:56.714Z,96.22
2022-08-20T07:45:56.720Z,96.32
2022-08-20T07:46:56.698Z,95.92
2022-08-20T07:47:56.674Z,95.72
2022-08-20T07:48:56.676Z,95.42
2022-08-20T07:49:56.665Z,95.82
2022-08-20T07:50:56.659Z,95.52
2022-08-20T07:51:56.670Z,96.02
2022-08-20T07:52:56.755Z,96.32
2022-08-20T07:53:56.640Z,96.12
2022-08-20T07:54:56.616Z,96.02
2022-08-20T07:55:59.068Z,96.22
2022-08-20T07:56:56.599Z,95.92
2022-08-20T07:57:56.592Z,96.32
2022-08-20T07:58:56.575Z,96.32
2022-08-20T07:59:56.577Z,96.12
2022-08-20T08:00:56.631Z,96.12
2022-08-20T08:01:56.571Z,95.82
2022-08-20T08:02:56.660Z,95.82
2022-08-20T08:03:56.541Z,95.82
2022-08-20T08:04:56.522Z,95.52
2022-08-20T08:05:56.540Z,95.32
2022-08-20T08:06:57.233Z,95.82
2022-08-20T08:07:59.411Z,95.42
2022-08-20T08:08:56.519Z,95.92
2022-08-20T08:09:57.196Z,95.72
2022-08-20T08:10:56.474Z,95.72
2022-08-20T08:11:56.465Z,96.02
2022-08-20T08:12:56.654Z,96.12
2022-08-20T08:13:56.444Z,96.22
2022-08-20T08:14:56.438Z,95.72
2022-08-20T08:15:56.419Z,95.92
2022-08-20T08:16:56.407Z,95.72
2022-08-20T08:17:56.368Z,96.42
2022-08-20T08:18:56.414Z,96.22
2022-08-20T08:19:56.357Z,96.22
2022-08-20T08:20:56.357Z,95.57
2022-08-20T08:21:56.366Z,95.87
2022-08-20T08:22:57.166Z,94.97
2022-08-20T08:23:57.183Z,95.27
2022-08-20T08:24:57.792Z,95.52
2022-08-20T08:25:56.622Z,95.47
2022-08-20T08:26:56.340Z,95.27
2022-08-20T08:27:56.340Z,94.97
2022-08-20T08:28:56.270Z,94.87
2022-08-20T08:29:56.283Z,94.77
2022-08-20T08:30:56.241Z,94.97
2022-08-20T08:31:56.247Z,94.87
2022-08-20T08:32:56.505Z,95.17
2022-08-20T08:33:56.207Z,94.87
2022-08-20T08:34:56.281Z,94.97
2022-08-20T08:35:56.225Z,95.37
2022-08-20T08:36:56.176Z,94.97
2022-08-20T08:37:56.184Z,94.97
2022-08-20T08:38:56.181Z,95.17
2022-08-20T08:39:56.202Z,94.93
2022-08-20T08:40:59.895Z,94.67
2022-08-20T08:41:56.129Z,94.93
2022-08-20T08:42:56.261Z,94.32
2022-08-20T08:43:56.101Z,94.67
2022-08-20T08:44:56.115Z,94.43
2022-08-20T08:45:56.096Z,94.62
2022-08-20T08:46:56.079Z,94.53
2022-08-20T08:47:56.054Z,94.57
2022-08-20T08:48:56.062Z,94.87
2022-08-20T08:49:56.076Z,95.07
2022-08-20T08:50:56.052Z,94.87
2022-08-20T08:51:56.016Z,94.67
2022-08-20T08:52:56.159Z,94.73
2022-08-20T08:53:56.039Z,94.77
2022-08-20T08:54:55.997Z,95.03
2022-08-20T08:55:55.996Z,94.93
2022-08-20T08:56:55.967Z,94.82
2022-08-20T08:57:55.969Z,94.73
2022-08-20T08:58:55.947Z,94.43
2022-08-20T09:00:04.021Z,94.43
2022-08-20T09:00:57.655Z,93.93
2022-08-20T09:01:57.314Z,94.43
2022-08-20T09:02:56.032Z,94.12
2022-08-20T09:03:55.936Z,93.88
2022-08-20T09:04:55.905Z,93.98
2022-08-20T09:05:55.875Z,93.98
2022-08-20T09:06:55.890Z,93.68
2022-08-20T09:07:56.830Z,93.58
2022-08-20T09:08:55.855Z,93.38
2022-08-20T09:09:55.840Z,93.04
2022-08-20T09:10:55.825Z,92.63
2022-08-20T09:11:55.815Z,92.48
2022-08-20T09:12:55.812Z,93.08
2022-08-20T09:13:55.796Z,93.08
2022-08-20T09:14:55.807Z,92.68
2022-08-20T09:15:55.768Z,92.48
2022-08-20T09:16:55.784Z,92.38
2022-08-20T09:17:55.902Z,92.48
2022-08-20T09:18:55.739Z,92.48
2022-08-20T09:19:55.758Z,92.24
2022-08-20T09:20:55.745Z,91.83
2022-08-20T09:21:55.714Z,91.93
2022-08-20T09:22:55.738Z,91.13
2022-08-20T09:23:55.705Z,91.93
2022-08-20T09:24:55.678Z,91.63
2022-08-20T09:25:55.713Z,91.44
2022-08-20T09:26:55.663Z,90.89
2022-08-20T09:27:55.641Z,91.49
2022-08-20T09:28:55.641Z,90.49
2022-08-20T09:29:55.654Z,90.59
2022-08-20T09:30:55.673Z,90.65
2022-08-20T09:31:55.619Z,89.15
2022-08-20T09:32:55.798Z,89.35
2022-08-20T09:33:55.624Z,89.25
2022-08-20T09:34:55.607Z,89.25
2022-08-20T09:35:55.573Z,89.89
2022-08-20T09:36:55.566Z,90.49
2022-08-20T09:37:55.547Z,90.29
2022-08-20T09:38:55.539Z,89.99
2022-08-20T09:39:55.604Z,90.39
2022-08-20T09:40:55.566Z,90.19
2022-08-20T09:41:55.506Z,90.13
2022-08-20T09:42:55.526Z,90.63
2022-08-20T09:43:55.489Z,90.49
2022-08-20T09:44:55.510Z,90.29
2022-08-20T09:45:55.497Z,90.09
2022-08-20T09:46:55.454Z,90.09
2022-08-20T09:47:56.865Z,89.85
2022-08-20T09:48:55.473Z,89.65
2022-08-20T09:49:55.450Z,89.55
2022-08-20T09:50:55.456Z,90.09
2022-08-20T09:51:55.450Z,90.45
2022-08-20T09:52:55.401Z,89.55
2022-08-20T09:53:55.411Z,89.75
2022-08-20T09:54:55.397Z,88.85
2022-08-20T09:55:55.381Z,89.69
2022-08-20T09:56:55.345Z,89.85
2022-08-20T09:57:55.509Z,89.55
2022-08-20T09:58:57.193Z,89.15
2022-08-20T09:59:55.329Z,88.90
2022-08-20T10:00:55.332Z,88.10
2022-08-20T10:01:55.354Z,88.90
2022-08-20T10:02:55.296Z,88.40
2022-08-20T10:03:55.295Z,88.55
2022-08-20T10:04:55.307Z,88.71
2022-08-20T10:05:55.272Z,88.60
2022-08-20T10:06:55.264Z,88.71
2022-08-20T10:07:55.234Z,89.01
2022-08-20T10:08:55.236Z,88.60
2022-08-20T10:09:55.244Z,88.95
2022-08-20T10:10:55.225Z,89.15
2022-08-20T10:11:55.213Z,89.35
2022-08-20T10:12:55.302Z,88.75
2022-08-20T10:13:55.178Z,88.55
2022-08-20T10:14:55.185Z,88.35
2022-08-20T10:15:55.159Z,88.55
2022-08-20T10:16:55.158Z,88.35
2022-08-20T10:17:55.174Z,87.81
2022-08-20T10:18:55.171Z,87.85
2022-08-20T10:19:55.140Z,87.95
2022-08-20T10:20:55.110Z,87.75
2022-08-20T10:21:55.149Z,87.75
2022-08-20T10:22:55.079Z,88.05
2022-08-20T10:23:55.101Z,87.95
2022-08-20T10:24:55.091Z,87.51
2022-08-20T10:25:55.048Z,87.21
2022-08-20T10:26:55.065Z,87.21
2022-08-20T10:27:55.054Z,86.95
2022-08-20T10:28:55.039Z,87.05
2022-08-20T10:29:55.038Z,87.01
2022-08-20T10:30:55.003Z,86.31
2022-08-20T10:31:55.011Z,85.87
2022-08-20T10:32:54.996Z,85.47
2022-08-20T10:33:54.969Z,85.07
2022-08-20T10:34:54.995Z,84.73
2022-08-20T10:35:59.664Z,84.33
2022-08-20T10:36:55.945Z,84.13
2022-08-20T10:37:54.994Z,83.33
2022-08-20T10:38:54.950Z,83.57
2022-08-20T10:39:55.025Z,82.67
2022-08-20T10:40:54.976Z,83.87
2022-08-20T10:41:54.968Z,83.27
2022-08-20T10:42:54.996Z,83.13
2022-08-20T10:43:54.912Z,82.53
2022-08-20T10:44:54.953Z,81.63
2022-08-20T10:45:55.878Z,81.54
2022-08-20T10:46:57.076Z,80.83
2022-08-20T10:47:54.921Z,80.88
2022-08-20T10:48:54.879Z,81.43
2022-08-20T10:49:54.803Z,81.18
2022-08-20T10:50:54.838Z,80.83
2022-08-20T10:51:54.800Z,80.14
2022-08-20T10:52:54.983Z,80.00
2022-08-20T10:53:54.822Z,79.80
2022-08-20T10:54:54.801Z,79.50
2022-08-20T10:55:55.631Z,78.50
2022-08-20T10:56:54.814Z,77.94
2022-08-20T10:57:55.153Z,78.14
2022-08-20T10:58:54.787Z,78.34
2022-08-20T10:59:55.690Z,78.44
2022-08-20T11:00:54.785Z,77.84
2022-08-20T11:01:54.875Z,77.70
2022-08-20T11:02:54.740Z,76.41
2022-08-20T11:03:54.752Z,76.71
2022-08-20T11:04:54.757Z,75.87
2022-08-20T11:05:54.764Z,76.57
2022-08-20T11:06:54.627Z,76.47
2022-08-20T11:08:08.535Z,75.64
2022-08-20T11:08:56.764Z,75.44
2022-08-20T11:09:54.610Z,75.78
2022-08-20T11:10:54.624Z,76.37
2022-08-20T11:11:54.610Z,76.57
2022-08-20T11:12:54.573Z,75.78
2022-08-20T11:13:54.587Z,75.78
2022-08-20T11:14:54.607Z,75.84
2022-08-20T11:15:54.538Z,75.94
2022-08-20T11:16:54.533Z,76.34
2022-08-20T11:17:54.539Z,76.14
2022-08-20T11:18:54.500Z,76.34
2022-08-20T11:19:54.513Z,76.93
2022-08-20T11:20:54.571Z,76.83
2022-08-20T11:21:54.871Z,77.17
2022-08-20T11:22:54.476Z,77.27
2022-08-20T11:23:54.463Z,77.91
2022-08-20T11:24:54.467Z,78.11
2022-08-20T11:25:54.475Z,78.00
2022-08-20T11:26:54.440Z,77.70
2022-08-20T11:27:54.427Z,77.37
2022-08-20T11:28:54.412Z,76.67
2022-08-20T11:29:54.426Z,76.43
2022-08-20T11:30:54.397Z,75.84
2022-08-20T11:31:54.384Z,75.74
2022-08-20T11:32:54.384Z,75.94
2022-08-20T11:33:54.393Z,75.67
2022-08-20T11:34:54.347Z,75.97
2022-08-20T11:35:54.333Z,75.67
2022-08-20T11:36:54.366Z,76.27
2022-08-20T11:37:54.342Z,74.41
2022-08-20T11:38:54.318Z,74.41
2022-08-20T11:39:54.371Z,73.91
2022-08-20T11:40:54.320Z,73.82
2022-08-20T11:41:54.760Z,71.42
2022-08-20T11:43:13.640Z,71.52
2022-08-20T11:44:20.190Z,71.22
2022-08-20T11:44:56.427Z,71.22
2022-08-20T11:45:54.507Z,70.92
2022-08-20T11:46:54.262Z,71.12
2022-08-20T11:47:54.252Z,71.48
2022-08-20T11:48:54.222Z,71.09
2022-08-20T11:49:54.222Z,71.52
2022-08-20T11:50:54.212Z,71.52
2022-08-20T11:51:54.183Z,71.62
2022-08-20T11:52:54.194Z,72.22
2022-08-20T11:53:54.160Z,72.81
2022-08-20T11:54:55.106Z,72.72
2022-08-20T11:55:54.156Z,72.92
2022-08-20T11:56:54.505Z,73.02
2022-08-20T11:57:54.124Z,72.98
2022-08-20T11:58:54.169Z,72.58
2022-08-20T11:59:54.216Z,71.92
2022-08-20T12:00:54.420Z,73.02
2022-08-20T12:02:02.968Z,71.92
2022-08-20T12:02:55.403Z,72.32
2022-08-20T12:03:54.121Z,72.52
2022-08-20T12:04:54.108Z,72.22
2022-08-20T12:05:54.052Z,72.02
2022-08-20T12:06:54.081Z,71.82
2022-08-20T12:07:54.066Z,71.72
2022-08-20T12:08:54.040Z,71.02
2022-08-20T12:09:54.009Z,70.72
2022-08-20T12:10:54.013Z,70.76
2022-08-20T12:11:54.020Z,71.12
2022-08-20T12:12:53.977Z,71.42
2022-08-20T12:13:53.951Z,71.22
2022-08-20T12:14:53.980Z,71.22
2022-08-20T12:15:53.972Z,71.12
2022-08-20T12:16:53.964Z,70.99
2022-08-20T12:17:53.914Z,70.99
2022-08-20T12:18:53.929Z,71.09
2022-08-20T12:19:53.895Z,71.12
2022-08-20T12:20:53.910Z,71.52
2022-08-20T12:21:53.908Z,71.48
2022-08-20T12:22:53.902Z,71.78
2022-08-20T12:23:53.859Z,71.98
2022-08-20T12:24:53.840Z,72.22
2022-08-20T12:25:53.910Z,71.82
2022-08-20T12:26:53.859Z,72.22
2022-08-20T12:27:53.829Z,72.52
2022-08-20T12:28:53.832Z,72.62
2022-08-20T12:29:53.788Z,72.42
2022-08-20T12:30:53.809Z,72.28
2022-08-20T12:31:53.771Z,72.28
2022-08-20T12:32:54.028Z,71.92
2022-08-20T12:33:53.756Z,72.22
2022-08-20T12:34:53.761Z,72.92
2022-08-20T12:35:53.720Z,73.61
2022-08-20T12:36:53.731Z,74.11
2022-08-20T12:37:53.718Z,74.11
2022-08-20T12:38:53.721Z,74.21
2022-08-20T12:39:53.784Z,74.62
2022-08-20T12:40:53.708Z,74.91
2022-08-20T12:41:53.716Z,74.62
2022-08-20T12:42:53.653Z,74.77
2022-08-20T12:43:53.646Z,74.18
2022-08-20T12:44:53.655Z,74.58
2022-08-20T12:45:53.648Z,74.81
2022-08-20T12:46:53.651Z,74.71
2022-08-20T12:47:53.611Z,74.51
2022-08-20T12:48:53.595Z,74.48
2022-08-20T12:49:53.599Z,74.58
2022-08-20T12:50:53.597Z,74.68
2022-08-20T12:51:53.595Z,74.18